createdAt,value
2018-07-08T00:00:24.685Z,16.86
2018-07-08T00:02:51.896Z,16.89
2018-07-08T00:05:19.927Z,16.87
2018-07-08T00:07:47.065Z,16.78
2018-07-08T00:10:14.364Z,16.65
2018-07-08T00:12:41.512Z,16.70
2018-07-08T00:15:08.652Z,16.73
2018-07-08T00:17:35.852Z,16.53
2018-07-08T00:20:03.082Z,16.41
2018-07-08T00:22:31.065Z,16.39
2018-07-08T00:24:58.350Z,16.46
2018-07-08T00:27:25.477Z,16.36
2018-07-08T00:29:52.600Z,16.31
2018-07-08T00:32:20.125Z,16.28
2018-07-08T00:34:47.755Z,16.35
2018-07-08T00:37:14.951Z,16.32
2018-07-08T00:39:42.274Z,16.31
2018-07-08T00:42:09.492Z,16.35
2018-07-08T00:44:36.653Z,16.33
2018-07-08T00:47:04.049Z,16.27
2018-07-08T00:49:31.228Z,16.24
2018-07-08T00:51:58.391Z,16.34
2018-07-08T00:54:25.609Z,16.41
2018-07-08T00:56:52.748Z,16.31
2018-07-08T00:59:20.005Z,16.34
2018-07-08T01:01:47.582Z,16.35
2018-07-08T01:04:14.704Z,16.43
2018-07-08T01:06:42.824Z,16.42
2018-07-08T01:09:10.065Z,16.28
2018-07-08T01:11:37.313Z,16.36
2018-07-08T01:14:04.608Z,16.39
2018-07-08T01:16:31.848Z,16.25
2018-07-08T01:18:58.992Z,16.26
2018-07-08T01:21:26.151Z,16.13
2018-07-08T01:23:54.005Z,16.07
2018-07-08T01:26:21.200Z,16.02
2018-07-08T01:28:48.964Z,15.95
2018-07-08T01:31:17.223Z,15.87
2018-07-08T01:33:44.367Z,16.04
2018-07-08T01:36:11.561Z,15.97
2018-07-08T01:38:38.818Z,15.96
2018-07-08T01:41:06.082Z,15.87
2018-07-08T01:43:33.251Z,15.86
2018-07-08T01:46:00.818Z,15.85
2018-07-08T01:48:28.073Z,15.81
2018-07-08T01:50:55.256Z,15.84
2018-07-08T01:53:22.934Z,15.84
2018-07-08T01:55:50.069Z,15.96
2018-07-08T01:58:17.232Z,15.90
2018-07-08T02:00:44.530Z,15.89
2018-07-08T02:03:11.720Z,15.87
2018-07-08T02:05:39.041Z,15.78
2018-07-08T02:08:06.311Z,15.76
2018-07-08T02:10:33.424Z,15.75
2018-07-08T02:13:00.609Z,15.64
2018-07-08T02:15:28.280Z,15.54
2018-07-08T02:17:55.439Z,15.40
2018-07-08T02:20:22.620Z,15.40
2018-07-08T02:22:49.820Z,15.42
2018-07-08T02:25:17.062Z,15.40
2018-07-08T02:27:44.232Z,15.47
2018-07-08T02:30:11.893Z,15.48
2018-07-08T02:32:39.255Z,15.49
2018-07-08T02:35:06.392Z,15.57
2018-07-08T02:37:33.692Z,15.60
2018-07-08T02:40:00.880Z,15.57
2018-07-08T02:42:28.032Z,15.62
2018-07-08T02:44:55.546Z,15.57
2018-07-08T02:47:23.094Z,15.68
2018-07-08T02:49:50.772Z,15.74
2018-07-08T02:52:19.681Z,15.71
2018-07-08T02:54:46.828Z,15.61
2018-07-08T02:57:14.193Z,15.61
2018-07-08T02:59:41.430Z,15.60
2018-07-08T03:02:08.755Z,15.64
2018-07-08T03:04:35.972Z,15.69
2018-07-08T03:07:03.177Z,15.60
2018-07-08T03:09:30.369Z,15.62
2018-07-08T03:11:57.524Z,15.69
2018-07-08T03:14:25.189Z,15.68
2018-07-08T03:16:52.437Z,15.65
2018-07-08T03:19:19.638Z,15.55
2018-07-08T03:21:46.806Z,15.50
2018-07-08T03:24:13.925Z,15.59
2018-07-08T03:26:41.179Z,15.58
2018-07-08T03:29:08.452Z,15.42
2018-07-08T03:31:35.580Z,15.46
2018-07-08T03:34:02.732Z,15.47
2018-07-08T03:36:29.912Z,15.51
2018-07-08T03:38:57.943Z,15.44
2018-07-08T03:41:25.146Z,15.43
2018-07-08T03:43:52.308Z,15.40
2018-07-08T03:46:19.404Z,15.35
2018-07-08T03:48:46.552Z,15.31
2018-07-08T03:51:13.771Z,15.27
2018-07-08T03:53:40.913Z,15.21
2018-07-08T03:56:08.136Z,15.25
2018-07-08T03:58:35.306Z,15.34
2018-07-08T04:01:02.435Z,15.40
2018-07-08T04:03:29.914Z,15.47
2018-07-08T04:05:57.357Z,15.53
2018-07-08T04:08:24.488Z,15.60
2018-07-08T04:10:51.985Z,15.53
2018-07-08T04:13:19.164Z,15.62
2018-07-08T04:15:46.408Z,15.62
2018-07-08T04:18:13.590Z,15.59
2018-07-08T04:20:40.730Z,15.66
2018-07-08T04:23:08.102Z,15.62
2018-07-08T04:25:35.312Z,15.75
2018-07-08T04:28:03.065Z,15.84
2018-07-08T04:30:30.828Z,15.93
2018-07-08T04:32:57.988Z,15.93
2018-07-08T04:35:25.292Z,15.94
2018-07-08T04:37:52.403Z,15.97
2018-07-08T04:40:19.676Z,16.08
2018-07-08T04:42:46.931Z,16.22
2018-07-08T04:45:14.036Z,16.19
2018-07-08T04:47:41.136Z,16.17
2018-07-08T04:50:08.408Z,16.19
2018-07-08T04:52:35.588Z,16.28
2018-07-08T04:55:02.888Z,16.36
2018-07-08T04:57:30.073Z,16.45
2018-07-08T04:59:57.433Z,16.46
2018-07-08T05:02:24.555Z,16.54
2018-07-08T05:04:51.778Z,16.64
2018-07-08T05:07:18.956Z,16.55
2018-07-08T05:09:46.084Z,16.55
2018-07-08T05:12:13.241Z,16.62
2018-07-08T05:14:40.400Z,16.42
2018-07-08T05:17:07.631Z,16.42
2018-07-08T05:19:34.843Z,16.43
2018-07-08T05:22:01.973Z,16.39
2018-07-08T05:24:29.080Z,16.41
2018-07-08T05:26:56.284Z,16.42
2018-07-08T05:29:24.306Z,16.54
2018-07-08T05:31:51.484Z,16.49
2018-07-08T05:34:18.677Z,16.76
2018-07-08T05:36:45.852Z,16.85
2018-07-08T05:39:13.054Z,16.91
2018-07-08T05:41:40.200Z,16.98
2018-07-08T05:44:07.320Z,17.14
2018-07-08T05:46:34.473Z,17.30
2018-07-08T05:49:01.759Z,17.35
2018-07-08T05:51:28.936Z,17.48
2018-07-08T05:53:56.186Z,17.71
2018-07-08T05:56:24.488Z,17.66
2018-07-08T05:58:51.860Z,17.72
2018-07-08T06:01:19.071Z,17.84
2018-07-08T06:03:46.204Z,17.92
2018-07-08T06:06:13.328Z,17.85
2018-07-08T06:08:40.448Z,18.09
2018-07-08T06:11:08.055Z,18.01
2018-07-08T06:13:35.277Z,17.93
2018-07-08T06:16:02.437Z,17.86
2018-07-08T06:18:29.606Z,18.10
2018-07-08T06:20:56.735Z,18.09
2018-07-08T06:23:23.843Z,18.17
2018-07-08T06:25:51.146Z,18.11
2018-07-08T06:28:18.264Z,18.11
2018-07-08T06:30:45.844Z,18.36
2018-07-08T06:33:12.991Z,18.12
2018-07-08T06:35:40.119Z,18.09
2018-07-08T06:38:07.656Z,18.16
2018-07-08T06:40:34.856Z,18.15
2018-07-08T06:43:02.029Z,18.31
2018-07-08T06:45:29.312Z,18.17
2018-07-08T06:47:56.532Z,18.34
2018-07-08T06:50:23.782Z,18.14
2018-07-08T06:52:50.928Z,18.33
2018-07-08T06:55:18.130Z,18.41
2018-07-08T06:57:45.290Z,18.45
2018-07-08T07:00:13.055Z,18.40
2018-07-08T07:02:40.248Z,18.29
2018-07-08T07:05:07.470Z,18.41
2018-07-08T07:07:34.639Z,18.33
2018-07-08T07:10:01.838Z,18.32
2018-07-08T07:12:29.070Z,18.24
2018-07-08T07:14:56.197Z,18.18
2018-07-08T07:17:23.420Z,18.22
2018-07-08T07:19:50.564Z,18.22
2018-07-08T07:22:17.684Z,18.33
2018-07-08T07:24:44.865Z,18.28
2018-07-08T07:27:12.016Z,18.28
2018-07-08T07:29:39.191Z,18.34
2018-07-08T07:32:08.725Z,18.23
2018-07-08T07:34:35.910Z,18.28
2018-07-08T07:37:03.222Z,18.43
2018-07-08T07:39:30.536Z,18.85
2018-07-08T07:41:57.683Z,19.18
2018-07-08T07:44:24.835Z,19.54
2018-07-08T07:46:52.011Z,19.67
2018-07-08T07:49:19.160Z,19.60
2018-07-08T07:51:46.371Z,19.77
2018-07-08T07:54:13.536Z,19.97
2018-07-08T07:56:40.704Z,20.11
2018-07-08T07:59:07.883Z,20.23
2018-07-08T08:01:35.024Z,20.61
2018-07-08T08:04:02.148Z,20.69
2018-07-08T08:06:29.317Z,20.74
2018-07-08T08:08:57.409Z,20.94
2018-07-08T08:11:24.546Z,20.91
2018-07-08T08:14:00.889Z,21.09
2018-07-08T08:16:28.132Z,20.87
2018-07-08T08:18:55.582Z,20.77
2018-07-08T08:21:23.192Z,20.98
2018-07-08T08:23:50.373Z,20.91
2018-07-08T08:26:17.916Z,20.70
2018-07-08T08:28:45.076Z,21.19
2018-07-08T08:31:12.199Z,21.51
2018-07-08T08:33:39.963Z,21.71
2018-07-08T08:36:07.160Z,21.42
2018-07-08T08:38:34.285Z,21.11
2018-07-08T08:41:01.450Z,21.33
2018-07-08T08:43:28.606Z,21.38
2018-07-08T08:45:55.757Z,21.44
2018-07-08T08:48:22.897Z,21.27
2018-07-08T08:50:50.152Z,21.39
2018-07-08T08:53:17.332Z,21.17
2018-07-08T08:55:44.464Z,21.06
2018-07-08T08:58:11.633Z,21.10
2018-07-08T09:00:38.804Z,20.92
2018-07-08T09:03:05.964Z,21.43
2018-07-08T09:05:33.138Z,22.14
2018-07-08T09:08:00.296Z,22.62
2018-07-08T09:10:27.444Z,22.61
2018-07-08T09:12:54.612Z,22.50
2018-07-08T09:15:21.754Z,22.13
2018-07-08T09:17:48.864Z,22.09
2018-07-08T09:20:16.041Z,21.79
2018-07-08T09:22:43.174Z,21.92
2018-07-08T09:25:10.273Z,22.06
2018-07-08T09:27:37.420Z,22.69
2018-07-08T09:30:04.653Z,22.74
2018-07-08T09:32:31.749Z,22.54
2018-07-08T09:35:00.648Z,22.28
2018-07-08T09:37:27.801Z,22.65
2018-07-08T09:39:54.947Z,23.17
2018-07-08T09:42:22.117Z,23.65
2018-07-08T09:44:49.223Z,23.74
2018-07-08T09:47:16.339Z,23.95
2018-07-08T09:49:43.509Z,23.88
2018-07-08T09:52:10.734Z,24.06
2018-07-08T09:54:37.909Z,23.97
2018-07-08T09:57:05.177Z,23.67
2018-07-08T09:59:32.328Z,23.34
2018-07-08T10:01:59.471Z,23.35
2018-07-08T10:04:26.759Z,23.56
2018-07-08T10:06:54.356Z,23.36
2018-07-08T10:09:22.674Z,23.87
2018-07-08T10:11:49.884Z,24.31
2018-07-08T10:14:19.461Z,24.65
2018-07-08T10:16:46.641Z,24.82
2018-07-08T10:19:15.036Z,24.59
2018-07-08T10:21:42.290Z,25.17
2018-07-08T10:24:09.745Z,25.39
2018-07-08T10:26:36.992Z,26.36
2018-07-08T10:29:04.450Z,25.37
2018-07-08T10:31:45.032Z,25.47
2018-07-08T10:34:12.196Z,25.76
2018-07-08T10:36:39.483Z,25.53
2018-07-08T10:39:07.927Z,25.34
2018-07-08T10:41:35.078Z,26.33
2018-07-08T10:44:02.316Z,25.84
2018-07-08T10:46:29.604Z,25.43
2018-07-08T10:48:56.765Z,25.14
2018-07-08T10:51:23.937Z,26.07
2018-07-08T10:53:51.170Z,25.99
2018-07-08T10:56:18.448Z,25.34
2018-07-08T10:58:45.601Z,25.84
2018-07-08T11:01:12.790Z,27.19
2018-07-08T11:03:39.933Z,25.84
2018-07-08T11:06:07.066Z,25.56
2018-07-08T11:08:34.307Z,25.43
2018-07-08T11:11:01.537Z,25.11
2018-07-08T11:13:28.671Z,25.27
2018-07-08T11:15:55.839Z,24.90
2018-07-08T11:18:23.009Z,25.07
2018-07-08T11:20:50.180Z,25.12
2018-07-08T11:23:17.362Z,25.00
2018-07-08T11:25:44.533Z,24.80
2018-07-08T11:28:11.627Z,25.04
2018-07-08T11:30:39.128Z,25.10
2018-07-08T11:33:06.755Z,25.69
2018-07-08T11:35:33.936Z,25.46
2018-07-08T11:38:01.157Z,25.28
2018-07-08T11:40:28.354Z,25.27
2018-07-08T11:42:55.520Z,25.18
2018-07-08T11:45:22.904Z,24.89
2018-07-08T11:47:50.009Z,24.82
2018-07-08T11:50:17.161Z,24.54
2018-07-08T11:52:44.359Z,24.46
2018-07-08T11:55:11.524Z,24.69
2018-07-08T11:57:38.707Z,24.66
2018-07-08T12:00:06.041Z,24.59
2018-07-08T12:02:33.292Z,24.64
2018-07-08T12:05:00.442Z,24.44
2018-07-08T12:07:27.683Z,24.65
2018-07-08T12:09:54.855Z,24.37
2018-07-08T12:12:22.057Z,24.72
2018-07-08T12:14:49.212Z,25.01
2018-07-08T12:17:16.388Z,25.00
2018-07-08T12:19:43.508Z,25.20
2018-07-08T12:22:10.644Z,25.39
2018-07-08T12:24:37.759Z,25.45
2018-07-08T12:27:05.020Z,25.52
2018-07-08T12:29:32.182Z,25.89
2018-07-08T12:31:59.309Z,25.79
2018-07-08T12:34:26.424Z,25.55
2018-07-08T12:36:53.679Z,25.67
2018-07-08T12:39:20.826Z,26.53
2018-07-08T12:41:48.004Z,27.29
2018-07-08T12:44:15.239Z,27.25
2018-07-08T12:46:42.319Z,27.38
2018-07-08T12:49:09.472Z,27.59
2018-07-08T12:51:36.692Z,27.82
2018-07-08T12:54:03.914Z,27.67
2018-07-08T12:56:31.093Z,27.12
2018-07-08T12:58:58.352Z,27.30
2018-07-08T13:01:25.504Z,27.19
2018-07-08T13:03:52.649Z,27.23
2018-07-08T13:06:21.827Z,27.37
2018-07-08T13:08:51.383Z,27.14
2018-07-08T13:11:19.598Z,27.69
2018-07-08T13:13:46.902Z,27.93
2018-07-08T13:16:14.150Z,27.49
2018-07-08T13:18:41.368Z,27.42
2018-07-08T13:21:08.573Z,27.40
2018-07-08T13:23:36.281Z,27.62
2018-07-08T13:26:03.515Z,27.19
2018-07-08T13:28:30.737Z,27.33
2018-07-08T13:30:58.784Z,27.25
2018-07-08T13:33:26.280Z,27.13
2018-07-08T13:35:53.589Z,27.36
2018-07-08T13:38:21.306Z,27.67
2018-07-08T13:40:48.464Z,27.76
2018-07-08T13:43:16.330Z,27.99
2018-07-08T13:45:44.280Z,27.56
2018-07-08T13:48:12.502Z,27.59
2018-07-08T13:50:41.276Z,27.40
2018-07-08T13:53:09.325Z,27.74
2018-07-08T13:55:36.996Z,28.15
2018-07-08T13:58:04.466Z,28.48
2018-07-08T14:00:31.734Z,28.82
2018-07-08T14:02:58.923Z,28.95
2018-07-08T14:05:26.139Z,28.97
2018-07-08T14:07:53.298Z,29.06
2018-07-08T14:10:20.435Z,29.01
2018-07-08T14:12:47.610Z,28.75
2018-07-08T14:15:14.733Z,29.28
2018-07-08T14:17:41.877Z,29.51
2018-07-08T14:20:09.113Z,29.45
2018-07-08T14:22:36.319Z,29.40
2018-07-08T14:25:03.609Z,29.53
2018-07-08T14:27:30.821Z,29.68
2018-07-08T14:29:58.050Z,30.33
2018-07-08T14:32:25.664Z,30.84
2018-07-08T14:34:52.898Z,30.63
2018-07-08T14:37:20.024Z,29.94
2018-07-08T14:39:47.191Z,29.72
2018-07-08T14:42:14.382Z,29.84
2018-07-08T14:44:41.572Z,29.40
2018-07-08T14:47:08.677Z,29.06
2018-07-08T14:49:36.012Z,29.33
2018-07-08T14:52:03.143Z,29.67
2018-07-08T14:54:30.297Z,29.74
2018-07-08T14:56:57.973Z,30.01
2018-07-08T14:59:25.244Z,30.29
2018-07-08T15:01:52.415Z,31.29
2018-07-08T15:04:19.654Z,33.63
2018-07-08T15:06:46.867Z,34.94
2018-07-08T15:09:14.490Z,35.69
2018-07-08T15:11:42.730Z,36.41
2018-07-08T15:14:09.892Z,38.62
2018-07-08T15:16:37.302Z,40.34
2018-07-08T15:19:05.579Z,41.27
2018-07-08T15:21:33.209Z,41.75
2018-07-08T15:24:00.820Z,41.21
2018-07-08T15:26:28.460Z,42.05
2018-07-08T15:28:56.028Z,42.40
2018-07-08T15:31:24.040Z,42.46
2018-07-08T15:33:55.515Z,41.14
2018-07-08T15:36:24.555Z,42.50
2018-07-08T15:38:51.766Z,41.33
2018-07-08T15:41:18.941Z,40.46
2018-07-08T15:43:46.910Z,40.83
2018-07-08T15:46:14.184Z,40.68
2018-07-08T15:48:41.399Z,40.17
2018-07-08T15:51:08.660Z,39.47
2018-07-08T15:53:36.244Z,39.32
2018-07-08T15:56:03.574Z,37.75
2018-07-08T15:58:31.043Z,36.26
2018-07-08T16:00:59.702Z,35.53
2018-07-08T16:03:28.393Z,34.62
2018-07-08T16:05:56.552Z,33.34
2018-07-08T16:08:24.329Z,32.16
2018-07-08T16:10:51.900Z,31.70
2018-07-08T16:13:19.500Z,31.79
2018-07-08T16:15:46.976Z,30.98
2018-07-08T16:18:14.187Z,30.58
2018-07-08T16:20:41.363Z,30.29
2018-07-08T16:23:08.966Z,29.82
2018-07-08T16:25:36.162Z,29.22
2018-07-08T16:28:03.496Z,28.94
2018-07-08T16:30:31.573Z,28.88
2018-07-08T16:33:03.416Z,28.86
2018-07-08T16:35:30.544Z,29.17
2018-07-08T16:37:57.637Z,29.17
2018-07-08T16:40:25.462Z,29.19
2018-07-08T16:42:53.157Z,29.16
2018-07-08T16:45:21.097Z,29.14
2018-07-08T16:47:48.880Z,29.08
2018-07-08T16:50:17.515Z,29.04
2018-07-08T16:52:46.090Z,29.07
2018-07-08T16:55:16.084Z,28.85
2018-07-08T16:57:45.652Z,28.57
2018-07-08T17:00:16.069Z,28.42
2018-07-08T17:02:45.691Z,28.40
2018-07-08T17:05:15.195Z,28.19
2018-07-08T17:07:43.832Z,28.12
2018-07-08T17:10:11.044Z,28.10
2018-07-08T17:12:39.415Z,28.02
2018-07-08T17:15:06.994Z,28.02
2018-07-08T17:17:34.152Z,28.06
2018-07-08T17:20:01.312Z,28.10
2018-07-08T17:22:28.654Z,27.97
2018-07-08T17:24:56.416Z,27.79
2018-07-08T17:27:24.265Z,27.76
2018-07-08T17:29:51.704Z,27.66
2018-07-08T17:32:19.239Z,27.54
2018-07-08T17:34:46.987Z,27.27
2018-07-08T17:37:16.154Z,27.34
2018-07-08T17:39:44.419Z,27.31
2018-07-08T17:42:14.617Z,27.14
2018-07-08T17:44:42.988Z,27.04
2018-07-08T17:47:11.283Z,26.89
2018-07-08T17:49:39.259Z,26.94
2018-07-08T17:52:06.545Z,26.77
2018-07-08T17:54:33.749Z,26.82
2018-07-08T17:57:01.436Z,26.92
2018-07-08T17:59:28.911Z,27.01
2018-07-08T18:01:56.083Z,26.89
2018-07-08T18:04:23.468Z,26.72
2018-07-08T18:06:52.035Z,26.71
2018-07-08T18:09:19.800Z,26.74
2018-07-08T18:11:47.236Z,26.72
2018-07-08T18:14:15.882Z,26.64
2018-07-08T18:16:43.925Z,26.64
2018-07-08T18:19:11.079Z,26.46
2018-07-08T18:21:38.252Z,26.47
2018-07-08T18:24:06.853Z,26.37
2018-07-08T18:26:34.120Z,26.46
2018-07-08T18:29:01.377Z,26.28
2018-07-08T18:31:28.485Z,26.20
2018-07-08T18:33:55.647Z,26.11
2018-07-08T18:36:23.120Z,25.96
2018-07-08T18:38:51.331Z,26.06
2018-07-08T18:41:18.781Z,26.03
2018-07-08T18:43:46.656Z,25.98
2018-07-08T18:46:14.265Z,25.93
2018-07-08T18:48:43.469Z,25.75
2018-07-08T18:51:10.716Z,25.68
2018-07-08T18:53:37.814Z,25.59
2018-07-08T18:56:05.008Z,25.55
2018-07-08T18:58:32.325Z,25.46
2018-07-08T19:00:59.495Z,25.34
2018-07-08T19:03:26.595Z,25.30
2018-07-08T19:05:53.756Z,25.12
2018-07-08T19:08:21.352Z,25.13
2018-07-08T19:10:48.853Z,25.07
2018-07-08T19:13:16.956Z,24.92
2018-07-08T19:15:44.615Z,24.86
2018-07-08T19:18:11.994Z,24.79
2018-07-08T19:20:39.323Z,24.55
2018-07-08T19:23:06.517Z,24.50
2018-07-08T19:25:33.636Z,24.34
2018-07-08T19:28:00.936Z,24.17
2018-07-08T19:30:29.395Z,24.13
2018-07-08T19:32:56.612Z,24.01
2018-07-08T19:35:23.939Z,23.83
2018-07-08T19:37:51.474Z,23.64
2018-07-08T19:40:20.030Z,23.47
2018-07-08T19:42:47.969Z,23.48
2018-07-08T19:45:16.767Z,23.35
2018-07-08T19:47:45.046Z,23.30
2018-07-08T19:50:13.027Z,23.22
2018-07-08T19:52:40.243Z,23.09
2018-07-08T19:55:07.355Z,23.06
2018-07-08T19:57:34.489Z,23.01
2018-07-08T20:00:01.851Z,23.03
2018-07-08T20:02:29.186Z,22.94
2018-07-08T20:04:56.908Z,22.92
2018-07-08T20:07:24.159Z,22.82
2018-07-08T20:09:51.460Z,22.66
2018-07-08T20:12:19.249Z,22.51
2018-07-08T20:14:48.710Z,22.34
2018-07-08T20:17:17.401Z,22.16
2018-07-08T20:19:46.356Z,21.95
2018-07-08T20:22:14.891Z,21.82
2018-07-08T20:24:43.783Z,21.73
2018-07-08T20:27:11.015Z,21.55
2018-07-08T20:29:44.355Z,21.41
2018-07-08T20:32:11.534Z,21.29
2018-07-08T20:34:38.699Z,21.14
2018-07-08T20:37:05.901Z,21.06
2018-07-08T20:39:33.032Z,20.94
2018-07-08T20:42:00.373Z,20.85
2018-07-08T20:44:27.658Z,20.76
2018-07-08T20:47:00.625Z,20.70
2018-07-08T20:49:27.777Z,20.63
2018-07-08T20:51:56.494Z,20.57
2018-07-08T20:54:23.755Z,20.46
2018-07-08T20:56:51.060Z,20.36
2018-07-08T20:59:18.369Z,20.27
2018-07-08T21:01:45.725Z,20.19
2018-07-08T21:04:13.043Z,20.11
2018-07-08T21:06:40.199Z,20.00
2018-07-08T21:09:07.357Z,19.91
2018-07-08T21:11:34.455Z,19.84
2018-07-08T21:14:01.584Z,19.78
2018-07-08T21:16:28.757Z,19.70
2018-07-08T21:18:55.888Z,19.64
2018-07-08T21:21:23.004Z,19.68
2018-07-08T21:23:50.154Z,19.66
2018-07-08T21:26:17.275Z,19.72
2018-07-08T21:28:44.439Z,19.65
2018-07-08T21:31:11.623Z,19.72
2018-07-08T21:33:39.008Z,19.67
2018-07-08T21:36:07.068Z,19.70
2018-07-08T21:38:34.596Z,19.74
2018-07-08T21:41:02.065Z,19.74
2018-07-08T21:43:29.283Z,19.76
2018-07-08T21:45:56.449Z,19.78
2018-07-08T21:48:23.573Z,19.78
2018-07-08T21:50:50.676Z,19.81
2018-07-08T21:53:18.060Z,19.81
2018-07-08T21:55:45.165Z,19.89
2018-07-08T21:58:12.348Z,19.93
2018-07-08T22:00:53.465Z,20.03
2018-07-08T22:03:20.628Z,20.14
2018-07-08T22:05:47.984Z,20.20
2018-07-08T22:08:15.198Z,20.21
2018-07-08T22:10:42.348Z,20.29
2018-07-08T22:13:09.452Z,20.30
2018-07-08T22:15:36.687Z,20.27
2018-07-08T22:18:03.852Z,20.23
2018-07-08T22:20:30.953Z,20.21
2018-07-08T22:22:58.119Z,20.15
2018-07-08T22:25:25.828Z,20.08
2018-07-08T22:27:52.952Z,20.02
2018-07-08T22:30:20.879Z,20.01
2018-07-08T22:32:48.003Z,19.97
2018-07-08T22:35:15.748Z,19.93
2018-07-08T22:37:43.447Z,19.87
2018-07-08T22:40:10.616Z,19.78
2018-07-08T22:42:37.724Z,19.68
2018-07-08T22:45:04.920Z,19.66
2018-07-08T22:47:32.057Z,19.68
2018-07-08T22:49:59.192Z,19.66
2018-07-08T22:52:26.408Z,19.64
2018-07-08T22:54:53.896Z,19.80
2018-07-08T22:57:21.086Z,19.86
2018-07-08T22:59:59.823Z,19.91
2018-07-08T23:02:41.371Z,19.94
2018-07-08T23:05:08.573Z,19.94
2018-07-08T23:07:35.704Z,19.96
2018-07-08T23:10:02.896Z,19.95
2018-07-08T23:12:30.100Z,19.91
2018-07-08T23:14:57.308Z,19.98
2018-07-08T23:17:24.436Z,19.97
2018-07-08T23:19:51.586Z,20.02
2018-07-08T23:22:19.699Z,20.19
2018-07-08T23:24:46.844Z,20.22
2018-07-08T23:27:14.004Z,20.30
2018-07-08T23:29:41.508Z,20.24
2018-07-08T23:32:08.654Z,20.21
2018-07-08T23:34:35.820Z,20.20
2018-07-08T23:37:02.944Z,20.11
2018-07-08T23:39:30.148Z,20.08
2018-07-08T23:41:57.289Z,20.04
2018-07-08T23:44:24.415Z,20.02
2018-07-08T23:46:51.532Z,20.01
2018-07-08T23:49:18.768Z,20.05
2018-07-08T23:51:45.912Z,20.05
2018-07-08T23:54:13.062Z,20.01
2018-07-08T23:56:40.218Z,20.02
2018-07-08T23:59:07.347Z,20.15
